createdAt,value
2019-01-19T00:01:54.607Z,60.86
2019-01-19T00:05:15.061Z,60.84
2019-01-19T00:08:12.763Z,60.70
2019-01-19T00:11:49.246Z,60.71
2019-01-19T00:15:00.042Z,60.79
2019-01-19T00:18:27.433Z,60.79
2019-01-19T00:21:30.063Z,60.86
2019-01-19T00:25:00.639Z,60.86
2019-01-19T00:28:06.124Z,60.85
2019-01-19T00:30:52.099Z,60.81
2019-01-19T00:34:10.233Z,60.80
2019-01-19T00:36:50.373Z,60.84
2019-01-19T00:39:59.122Z,60.80
2019-01-19T00:42:51.649Z,60.89
2019-01-19T00:45:45.574Z,60.92
2019-01-19T00:48:27.420Z,60.95
2019-01-19T00:51:39.571Z,60.73
2019-01-19T00:54:35.086Z,60.77
2019-01-19T00:57:22.312Z,60.84
2019-01-19T01:00:00.571Z,60.95
2019-01-19T01:03:24.396Z,60.99
2019-01-19T01:06:32.448Z,61.18
2019-01-19T01:09:54.029Z,61.14
2019-01-19T01:12:57.922Z,61.17
2019-01-19T01:15:55.807Z,61.30
2019-01-19T01:18:51.228Z,61.40
2019-01-19T01:22:17.305Z,61.42
2019-01-19T01:25:37.552Z,61.38
2019-01-19T01:29:01.751Z,61.31
2019-01-19T01:31:58.042Z,61.31
2019-01-19T01:34:45.364Z,61.32
2019-01-19T01:37:43.559Z,61.30
2019-01-19T01:41:16.984Z,61.25
2019-01-19T01:44:05.508Z,61.23
2019-01-19T01:47:39.152Z,61.16
2019-01-19T01:50:18.721Z,61.12
2019-01-19T01:53:13.056Z,61.11
2019-01-19T01:55:47.577Z,61.07
2019-01-19T01:58:43.698Z,61.12
2019-01-19T02:01:46.794Z,61.13
2019-01-19T02:04:54.150Z,61.13
2019-01-19T02:08:17.302Z,61.10
2019-01-19T02:11:29.580Z,61.03
2019-01-19T02:14:51.000Z,60.99
2019-01-19T02:17:51.954Z,60.97
2019-01-19T02:21:00.107Z,60.93
2019-01-19T02:24:08.270Z,60.89
2019-01-19T02:27:09.769Z,60.78
2019-01-19T02:30:09.031Z,61.00
2019-01-19T02:33:17.808Z,61.00
2019-01-19T02:36:16.749Z,60.90
2019-01-19T02:39:29.352Z,60.89
2019-01-19T02:42:36.599Z,60.86
2019-01-19T02:45:48.990Z,60.75
2019-01-19T02:48:56.140Z,60.75
2019-01-19T02:52:10.100Z,60.86
2019-01-19T02:55:25.305Z,60.84
2019-01-19T02:58:36.063Z,60.85
2019-01-19T03:01:44.309Z,60.85
2019-01-19T03:04:51.646Z,60.82
2019-01-19T03:08:16.263Z,60.80
2019-01-19T03:11:09.795Z,60.73
2019-01-19T03:14:23.092Z,60.73
2019-01-19T03:17:44.339Z,60.81
2019-01-19T03:20:36.727Z,60.80
2019-01-19T03:23:29.375Z,60.79
2019-01-19T03:26:46.247Z,60.79
2019-01-19T03:29:54.319Z,60.79
2019-01-19T03:33:12.597Z,60.82
2019-01-19T03:36:07.069Z,60.86
2019-01-19T03:39:28.971Z,60.90
2019-01-19T03:42:29.074Z,60.92
2019-01-19T03:45:47.266Z,60.91
2019-01-19T03:48:30.310Z,60.96
2019-01-19T03:51:25.172Z,61.01
2019-01-19T03:54:10.617Z,61.05
2019-01-19T03:57:25.660Z,61.06
2019-01-19T04:00:20.553Z,61.12
2019-01-19T04:03:31.860Z,61.15
2019-01-19T04:06:43.355Z,61.18
2019-01-19T04:09:51.486Z,61.22
2019-01-19T04:12:50.426Z,61.26
2019-01-19T04:16:09.287Z,61.28
2019-01-19T04:19:24.310Z,61.32
2019-01-19T04:22:22.043Z,61.33
2019-01-19T04:25:37.384Z,61.37
2019-01-19T04:28:08.805Z,61.43
2019-01-19T04:30:39.969Z,61.50
2019-01-19T04:33:11.119Z,61.56
2019-01-19T04:35:42.278Z,61.58
2019-01-19T04:38:13.599Z,61.62
2019-01-19T04:40:44.827Z,61.61
2019-01-19T04:43:16.139Z,61.61
2019-01-19T04:45:47.324Z,61.60
2019-01-19T04:48:20.231Z,61.63
2019-01-19T04:50:51.475Z,61.66
2019-01-19T04:53:22.670Z,61.71
2019-01-19T04:55:53.886Z,61.75
2019-01-19T04:58:25.061Z,61.78
2019-01-19T05:00:56.303Z,61.80
2019-01-19T05:03:28.556Z,61.83
2019-01-19T05:05:59.756Z,61.86
2019-01-19T05:08:30.971Z,61.89
2019-01-19T05:11:02.128Z,61.92
2019-01-19T05:13:33.312Z,61.92
2019-01-19T05:16:04.470Z,61.94
2019-01-19T05:18:35.825Z,61.93
2019-01-19T05:21:07.236Z,61.96
2019-01-19T05:23:38.678Z,61.99
2019-01-19T05:26:09.874Z,62.04
2019-01-19T05:28:41.065Z,62.08
2019-01-19T05:31:12.391Z,62.12
2019-01-19T05:33:43.661Z,62.14
2019-01-19T05:36:14.878Z,62.17
2019-01-19T05:38:46.048Z,62.21
2019-01-19T05:41:17.255Z,62.24
2019-01-19T05:43:48.433Z,62.26
2019-01-19T05:46:21.462Z,62.28
2019-01-19T05:48:52.977Z,62.31
2019-01-19T05:51:24.216Z,62.32
2019-01-19T05:53:55.434Z,62.31
2019-01-19T05:56:26.610Z,62.33
2019-01-19T05:58:57.907Z,62.35
2019-01-19T06:01:29.562Z,62.39
2019-01-19T06:04:00.768Z,62.40
2019-01-19T06:06:31.973Z,62.43
2019-01-19T06:09:04.148Z,62.46
2019-01-19T06:11:35.395Z,62.48
2019-01-19T06:14:06.549Z,62.49
2019-01-19T06:16:37.751Z,62.48
2019-01-19T06:19:09.328Z,62.47
2019-01-19T06:21:49.504Z,62.46
2019-01-19T06:24:20.764Z,62.47
2019-01-19T06:26:52.002Z,62.47
2019-01-19T06:29:23.190Z,62.47
2019-01-19T06:31:54.369Z,62.49
2019-01-19T06:34:25.632Z,62.49
2019-01-19T06:36:56.801Z,62.48
2019-01-19T06:39:28.098Z,62.54
2019-01-19T06:41:59.287Z,62.53
2019-01-19T06:44:30.506Z,62.53
2019-01-19T06:47:01.845Z,62.56
2019-01-19T06:49:33.015Z,62.55
2019-01-19T06:52:04.217Z,62.61
2019-01-19T06:54:35.432Z,62.62
2019-01-19T06:57:06.652Z,62.67
2019-01-19T06:59:37.832Z,62.67
2019-01-19T07:02:09.073Z,62.69
2019-01-19T07:04:40.253Z,62.72
2019-01-19T07:07:11.521Z,62.76
2019-01-19T07:09:42.705Z,62.79
2019-01-19T07:12:13.905Z,62.80
2019-01-19T07:14:45.184Z,62.83
2019-01-19T07:17:16.370Z,62.85
2019-01-19T07:19:47.555Z,62.86
2019-01-19T07:22:18.817Z,62.89
2019-01-19T07:24:50.108Z,62.93
2019-01-19T07:27:21.296Z,62.96
2019-01-19T07:29:52.520Z,62.99
2019-01-19T07:32:23.668Z,63.02
2019-01-19T07:34:54.859Z,63.05
2019-01-19T07:37:27.088Z,63.09
2019-01-19T07:39:58.296Z,63.13
2019-01-19T07:42:29.544Z,63.15
2019-01-19T07:45:00.745Z,63.20
2019-01-19T07:47:32.234Z,63.22
2019-01-19T07:50:03.486Z,63.24
2019-01-19T07:52:34.821Z,63.27
2019-01-19T07:55:06.670Z,63.28
2019-01-19T07:57:37.855Z,63.27
2019-01-19T08:00:13.531Z,63.28
2019-01-19T08:02:44.758Z,63.28
2019-01-19T08:05:16.373Z,63.28
2019-01-19T08:07:47.566Z,63.27
2019-01-19T08:10:18.975Z,63.23
2019-01-19T08:12:50.140Z,63.23
2019-01-19T08:15:23.263Z,63.22
2019-01-19T08:17:54.451Z,63.19
2019-01-19T08:20:25.674Z,63.14
2019-01-19T08:22:56.875Z,63.12
2019-01-19T08:25:28.016Z,63.11
2019-01-19T08:27:59.278Z,63.04
2019-01-19T08:30:31.315Z,62.99
2019-01-19T08:33:02.526Z,62.95
2019-01-19T08:35:34.217Z,62.94
2019-01-19T08:38:05.406Z,62.93
2019-01-19T08:40:37.468Z,62.95
2019-01-19T08:43:30.774Z,62.96
2019-01-19T08:46:02.271Z,62.96
2019-01-19T08:48:33.701Z,62.99
2019-01-19T08:51:04.992Z,63.01
2019-01-19T08:53:37.282Z,63.00
2019-01-19T08:56:08.483Z,62.97
2019-01-19T08:58:39.702Z,62.96
2019-01-19T09:01:11.052Z,62.97
2019-01-19T09:03:42.282Z,62.97
2019-01-19T09:06:13.461Z,62.98
2019-01-19T09:08:44.697Z,62.96
2019-01-19T09:11:15.993Z,62.95
2019-01-19T09:13:47.172Z,62.96
2019-01-19T09:16:20.689Z,62.92
2019-01-19T09:18:51.880Z,62.89
2019-01-19T09:21:23.096Z,62.87
2019-01-19T09:24:17.311Z,62.88
2019-01-19T09:26:48.550Z,62.88
2019-01-19T09:29:19.755Z,62.90
2019-01-19T09:31:50.928Z,62.84
2019-01-19T09:34:22.167Z,62.83
2019-01-19T09:36:53.375Z,62.82
2019-01-19T09:39:24.584Z,62.85
2019-01-19T09:41:55.804Z,62.83
2019-01-19T09:44:26.911Z,62.83
2019-01-19T09:46:58.037Z,62.82
2019-01-19T09:49:29.187Z,62.82
2019-01-19T09:52:00.284Z,62.78
2019-01-19T09:54:31.533Z,62.77
2019-01-19T09:57:02.740Z,62.75
2019-01-19T09:59:33.869Z,62.71
2019-01-19T10:02:05.044Z,62.70
2019-01-19T10:04:36.245Z,62.67
2019-01-19T10:07:07.485Z,62.66
2019-01-19T10:09:38.714Z,62.61
2019-01-19T10:12:09.939Z,62.58
2019-01-19T10:14:41.103Z,62.53
2019-01-19T10:17:12.326Z,62.50
2019-01-19T10:19:43.516Z,62.44
2019-01-19T10:22:14.671Z,62.39
2019-01-19T10:24:45.870Z,62.35
2019-01-19T10:27:17.091Z,62.30
2019-01-19T10:29:48.306Z,62.26
2019-01-19T10:32:19.604Z,62.26
2019-01-19T10:34:50.770Z,62.21
2019-01-19T10:37:21.936Z,62.15
2019-01-19T10:39:53.103Z,62.13
2019-01-19T10:42:24.465Z,62.09
2019-01-19T10:44:56.767Z,62.02
2019-01-19T10:47:27.974Z,62.02
2019-01-19T10:49:59.194Z,61.99
2019-01-19T10:52:30.426Z,61.96
2019-01-19T10:55:01.615Z,61.95
2019-01-19T10:57:32.777Z,61.92
2019-01-19T11:00:04.540Z,61.89
2019-01-19T11:02:36.856Z,61.87
2019-01-19T11:05:10.544Z,61.76
2019-01-19T11:07:43.834Z,61.74
2019-01-19T11:10:17.237Z,61.68
2019-01-19T11:12:48.405Z,61.42
2019-01-19T11:15:19.611Z,61.39
2019-01-19T11:17:50.879Z,61.44
2019-01-19T11:20:25.671Z,61.44
2019-01-19T11:22:57.917Z,61.38
2019-01-19T11:25:29.153Z,61.30
2019-01-19T11:28:00.375Z,61.33
2019-01-19T11:30:32.163Z,61.33
2019-01-19T11:33:03.401Z,61.27
2019-01-19T11:35:34.563Z,61.14
2019-01-19T11:38:11.775Z,61.21
2019-01-19T11:40:39.535Z,61.18
2019-01-19T11:43:11.503Z,61.13
2019-01-19T11:45:42.723Z,61.03
2019-01-19T11:48:14.059Z,61.06
2019-01-19T11:50:45.375Z,60.99
2019-01-19T11:53:16.701Z,61.00
2019-01-19T11:55:47.936Z,61.00
2019-01-19T11:58:19.100Z,60.97
2019-01-19T12:00:50.286Z,60.92
2019-01-19T12:03:21.588Z,60.89
2019-01-19T12:05:52.821Z,60.74
2019-01-19T12:08:24.007Z,60.65
2019-01-19T12:10:55.215Z,60.64
2019-01-19T12:13:26.413Z,60.66
2019-01-19T12:15:57.570Z,60.51
2019-01-19T12:18:28.817Z,60.50
2019-01-19T12:20:59.991Z,60.45
2019-01-19T12:23:31.246Z,60.26
2019-01-19T12:26:02.481Z,60.13
2019-01-19T12:28:33.685Z,60.10
2019-01-19T12:31:05.294Z,60.02
2019-01-19T12:33:36.549Z,60.01
2019-01-19T12:36:07.753Z,59.89
2019-01-19T12:38:39.050Z,59.77
2019-01-19T12:41:10.414Z,59.79
2019-01-19T12:43:41.679Z,59.68
2019-01-19T12:46:13.060Z,59.60
2019-01-19T12:48:44.301Z,59.54
2019-01-19T12:51:15.501Z,59.57
2019-01-19T12:53:46.656Z,59.50
2019-01-19T12:56:17.889Z,59.46
2019-01-19T12:58:49.200Z,59.32
2019-01-19T13:01:20.468Z,59.07
2019-01-19T13:03:51.693Z,59.13
2019-01-19T13:06:47.798Z,59.15
2019-01-19T13:09:27.837Z,59.08
2019-01-19T13:12:19.805Z,58.94
2019-01-19T13:15:03.178Z,58.89
2019-01-19T13:18:30.727Z,58.85
2019-01-19T13:21:47.716Z,58.89
2019-01-19T13:25:01.879Z,58.70
2019-01-19T13:28:11.651Z,58.61
2019-01-19T13:30:54.738Z,58.51
2019-01-19T13:33:43.726Z,58.37
2019-01-19T13:36:40.915Z,58.33
2019-01-19T13:39:23.197Z,58.23
2019-01-19T13:42:43.909Z,58.12
2019-01-19T13:45:55.341Z,58.01
2019-01-19T13:49:01.995Z,58.00
2019-01-19T13:51:57.338Z,57.76
2019-01-19T13:55:00.666Z,57.87
2019-01-19T13:57:55.653Z,57.86
2019-01-19T14:51:40.260Z,55.20
2019-01-19T14:54:46.633Z,55.90
2019-01-19T14:57:52.341Z,56.37
2019-01-19T15:01:11.184Z,56.55
2019-01-19T15:04:29.841Z,56.72
2019-01-19T15:07:42.412Z,56.83
2019-01-19T15:10:45.228Z,56.95
2019-01-19T15:13:57.477Z,57.01
2019-01-19T15:17:28.249Z,57.04
2019-01-19T15:20:34.149Z,57.12
2019-01-19T15:23:51.979Z,57.17
2019-01-19T15:26:58.876Z,57.29
2019-01-19T15:29:55.841Z,57.33
2019-01-19T15:32:53.373Z,57.43
2019-01-19T15:36:08.911Z,57.48
2019-01-19T15:39:23.726Z,57.52
2019-01-19T15:42:29.092Z,57.58
2019-01-19T15:45:32.163Z,57.61
2019-01-19T15:49:06.046Z,57.65
2019-01-19T15:52:46.056Z,57.74
2019-01-19T15:56:13.211Z,57.76
2019-01-19T15:59:23.995Z,57.81
2019-01-19T16:02:57.625Z,57.92
2019-01-19T16:06:22.133Z,57.96
2019-01-19T16:09:20.046Z,58.09
2019-01-19T16:12:30.107Z,58.21
2019-01-19T16:15:27.232Z,58.48
2019-01-19T16:18:42.958Z,58.46
2019-01-19T16:21:36.099Z,58.46
2019-01-19T16:25:06.403Z,58.49
2019-01-19T16:28:28.405Z,58.54
2019-01-19T16:31:44.184Z,58.62
2019-01-19T16:35:05.746Z,58.70
2019-01-19T16:38:18.965Z,58.79
2019-01-19T16:41:37.355Z,58.90
2019-01-19T16:44:47.310Z,58.99
2019-01-19T16:47:48.492Z,59.06
2019-01-19T16:50:56.110Z,59.13
2019-01-19T16:53:45.432Z,59.20
2019-01-19T16:56:40.016Z,59.26
2019-01-19T17:00:02.200Z,59.30
2019-01-19T17:03:15.627Z,59.37
2019-01-19T17:06:22.057Z,59.40
2019-01-19T17:09:32.915Z,59.43
2019-01-19T17:12:38.249Z,59.46
2019-01-19T17:15:50.366Z,59.52
2019-01-19T17:19:02.641Z,59.61
2019-01-19T17:22:21.123Z,59.67
2019-01-19T17:25:06.778Z,59.78
2019-01-19T17:27:55.813Z,59.84
2019-01-19T17:31:26.440Z,59.89
2019-01-19T17:34:45.051Z,59.94
2019-01-19T17:37:46.148Z,59.99
2019-01-19T17:40:47.503Z,60.01
2019-01-19T17:43:55.630Z,60.03
2019-01-19T17:47:26.188Z,60.06
2019-01-19T17:50:45.883Z,60.09
2019-01-19T17:53:45.958Z,60.11
2019-01-19T17:56:58.624Z,60.15
2019-01-19T18:00:02.884Z,60.17
2019-01-19T18:03:06.501Z,60.23
2019-01-19T18:06:09.823Z,60.27
2019-01-19T18:09:15.175Z,60.29
2019-01-19T18:12:22.149Z,60.34
2019-01-19T18:15:39.805Z,60.41
2019-01-19T18:19:25.781Z,60.46
2019-01-19T18:22:35.782Z,60.47
2019-01-19T18:25:21.278Z,60.45
2019-01-19T18:28:20.624Z,60.44
2019-01-19T18:31:20.582Z,60.44
2019-01-19T18:34:09.635Z,60.46
2019-01-19T18:37:17.578Z,60.45
2019-01-19T18:40:09.116Z,60.51
2019-01-19T18:43:23.187Z,60.55
2019-01-19T18:46:29.340Z,60.61
2019-01-19T18:49:16.547Z,60.67
2019-01-19T18:52:09.241Z,60.69
2019-01-19T18:55:07.268Z,60.72
2019-01-19T18:58:20.933Z,60.73
2019-01-19T19:01:30.413Z,60.73
2019-01-19T19:05:04.052Z,60.73
2019-01-19T19:07:58.832Z,60.71
2019-01-19T19:11:13.143Z,60.72
2019-01-19T19:14:13.555Z,60.71
2019-01-19T19:17:01.137Z,60.72
2019-01-19T19:20:02.995Z,60.73
2019-01-19T19:22:48.704Z,60.72
2019-01-19T19:25:45.853Z,60.77
2019-01-19T19:29:04.391Z,60.78
2019-01-19T19:32:05.363Z,60.82
2019-01-19T19:35:31.146Z,60.86
2019-01-19T19:38:44.623Z,60.85
2019-01-19T19:41:52.837Z,60.92
2019-01-19T19:44:52.128Z,60.94
2019-01-19T19:47:50.647Z,60.96
2019-01-19T19:50:51.439Z,60.99
2019-01-19T19:53:22.733Z,61.01
2019-01-19T19:55:52.475Z,61.04
2019-01-19T19:58:23.848Z,61.05
2019-01-19T20:00:55.277Z,61.05
2019-01-19T20:03:26.801Z,61.06
2019-01-19T20:05:58.354Z,61.06
2019-01-19T20:08:30.107Z,61.08
2019-01-19T20:11:01.803Z,61.09
2019-01-19T20:13:33.245Z,61.09
2019-01-19T20:16:04.628Z,61.11
2019-01-19T20:18:36.136Z,61.13
2019-01-19T20:21:08.004Z,61.15
2019-01-19T20:23:39.551Z,61.17
2019-01-19T20:26:11.006Z,61.15
2019-01-19T20:28:42.393Z,61.17
2019-01-19T20:31:14.848Z,61.19
2019-01-19T20:33:46.394Z,61.22
2019-01-19T20:36:17.743Z,61.21
2019-01-19T20:38:51.331Z,61.23
2019-01-19T20:41:22.943Z,61.24
2019-01-19T20:43:54.268Z,61.27
2019-01-19T20:46:25.973Z,61.26
2019-01-19T20:48:57.570Z,61.28
2019-01-19T20:51:29.209Z,61.33
2019-01-19T20:54:00.817Z,61.35
2019-01-19T20:56:32.430Z,61.36
2019-01-19T20:59:04.083Z,61.38
2019-01-19T21:01:35.488Z,61.42
2019-01-19T21:04:07.069Z,61.44
2019-01-19T21:06:39.534Z,61.47
2019-01-19T21:09:11.974Z,61.47
2019-01-19T21:11:43.278Z,61.47
2019-01-19T21:14:14.409Z,61.46
2019-01-19T21:16:45.738Z,61.48
2019-01-19T21:19:17.026Z,61.48
2019-01-19T21:21:48.207Z,61.52
2019-01-19T21:24:19.482Z,61.51
2019-01-19T21:26:50.762Z,61.55
2019-01-19T21:29:22.166Z,61.60
2019-01-19T21:31:53.378Z,61.68
2019-01-19T21:34:24.773Z,61.72
2019-01-19T21:36:55.983Z,61.75
2019-01-19T21:39:27.174Z,61.80
2019-01-19T21:41:58.462Z,61.83
2019-01-19T21:44:29.745Z,61.83
2019-01-19T21:47:00.972Z,61.84
2019-01-19T21:49:34.801Z,61.87
2019-01-19T21:52:06.404Z,61.88
2019-01-19T21:54:37.733Z,61.91
2019-01-19T21:57:08.954Z,61.92
2019-01-19T21:59:40.150Z,61.90
2019-01-19T22:02:11.343Z,61.89
2019-01-19T22:04:42.635Z,61.89
2019-01-19T22:07:13.828Z,61.92
2019-01-19T22:09:45.149Z,61.96
2019-01-19T22:12:16.360Z,61.99
2019-01-19T22:14:47.557Z,62.02
2019-01-19T22:17:18.746Z,62.04
2019-01-19T22:19:51.028Z,62.05
2019-01-19T22:22:22.192Z,62.04
2019-01-19T22:24:53.388Z,62.04
2019-01-19T22:27:24.802Z,62.03
2019-01-19T22:29:56.025Z,62.03
2019-01-19T22:32:27.339Z,62.01
2019-01-19T22:34:58.624Z,61.98
2019-01-19T22:37:29.811Z,61.99
2019-01-19T22:40:01.755Z,61.98
2019-01-19T22:42:33.159Z,61.99
2019-01-19T22:45:05.674Z,62.03
2019-01-19T22:47:36.924Z,62.03
2019-01-19T22:50:11.022Z,62.06
2019-01-19T22:52:42.210Z,62.11
2019-01-19T22:55:13.462Z,62.14
2019-01-19T22:57:44.743Z,62.16
2019-01-19T23:00:29.096Z,62.17
2019-01-19T23:03:01.949Z,62.18
2019-01-19T23:05:33.326Z,62.20
2019-01-19T23:08:04.797Z,62.21
2019-01-19T23:10:36.128Z,62.25
2019-01-19T23:13:07.790Z,62.26
2019-01-19T23:15:39.217Z,62.25
2019-01-19T23:18:10.591Z,62.28
2019-01-19T23:20:41.771Z,62.32
2019-01-19T23:23:12.979Z,62.31
2019-01-19T23:25:44.469Z,62.33
2019-01-19T23:28:15.809Z,62.35
2019-01-19T23:30:47.094Z,62.36
2019-01-19T23:33:18.249Z,62.36
2019-01-19T23:35:49.614Z,62.35
2019-01-19T23:38:20.758Z,62.33
2019-01-19T23:40:51.991Z,62.35
2019-01-19T23:43:23.309Z,62.36
2019-01-19T23:45:54.469Z,62.34
2019-01-19T23:48:25.771Z,62.35
2019-01-19T23:50:56.976Z,62.35
2019-01-19T23:53:28.220Z,62.35
2019-01-19T23:55:59.400Z,62.35
2019-01-19T23:58:30.609Z,62.32
